Time;durP1;ratioP1;P1;durP2;ratioP2;P2;SDS_P1;SDS_P2;PMS_P1;PMS_P2;Temp;Humidity;BMP_temperature;BMP_pressure;BME280_temperature;BME280_humidity;BME280_pressure;Samples;Min_cycle;Max_cycle;Signal;HPM_P1;HPM_P2
2023/04/01 00:01:05;;;;;;;;;20.25;19.00;22.70;42.60;;;;;;111253;1243;49930;-64
2023/04/01 00:03:33;;;;;;;;;21.33;20.00;22.70;42.60;;;;;;111354;1242;45269;-65
2023/04/01 00:06:01;;;;;;;;;20.00;18.75;22.80;42.80;;;;;;111414;1243;55790;-65
2023/04/01 00:08:29;;;;;;;;;18.00;17.00;22.70;42.60;;;;;;111422;1237;54427;-65
2023/04/01 00:10:56;;;;;;;;;20.50;16.75;22.70;42.60;;;;;;111313;1239;49562;-66
2023/04/01 00:13:26;;;;;;;;;20.00;19.00;22.70;42.70;;;;;;111467;1239;49397;-65
2023/04/01 00:15:54;;;;;;;;;24.75;20.25;22.70;42.70;;;;;;111555;1238;45407;-66
2023/04/01 00:18:21;;;;;;;;;18.50;16.50;22.70;42.70;;;;;;111485;1242;56037;-66
2023/04/01 00:20:50;;;;;;;;;21.00;18.50;22.70;42.70;;;;;;111417;1243;53994;-65
2023/04/01 00:23:18;;;;;;;;;19.00;17.25;22.70;42.70;;;;;;111413;1243;49954;-66
2023/04/01 00:25:47;;;;;;;;;20.25;18.00;22.70;42.80;;;;;;111348;1237;49036;-66
2023/04/01 00:28:16;;;;;;;;;21.75;17.00;22.70;42.90;;;;;;111342;1238;45519;-64
2023/04/01 00:30:43;;;;;;;;;23.00;19.50;22.70;42.80;;;;;;111344;1242;55961;-64
2023/04/01 00:33:11;;;;;;;;;17.00;16.00;22.70;42.80;;;;;;111835;1243;54265;-66
2023/04/01 00:35:39;;;;;;;;;20.75;18.25;22.70;42.80;;;;;;111528;1243;49072;-64
2023/04/01 00:38:06;;;;;;;;;19.75;18.00;22.70;42.90;;;;;;111248;1244;49485;-65
2023/04/01 00:40:36;;;;;;;;;20.75;17.50;22.70;42.70;;;;;;111351;1243;46405;-65
2023/04/01 00:43:05;;;;;;;;;20.50;19.00;22.70;42.70;;;;;;111453;1242;54980;-63
2023/04/01 00:45:38;;;;;;;;;19.75;15.25;22.70;42.70;;;;;;111183;1243;53588;-64
2023/04/01 00:48:33;;;;;;;;;18.50;17.25;22.70;42.90;;;;;;111293;1242;49862;-64
2023/04/01 00:51:22;;;;;;;;;21.00;16.50;22.70;42.60;;;;;;111373;1243;49384;-63
2023/04/01 00:53:52;;;;;;;;;19.00;18.00;22.70;42.50;;;;;;111355;1239;45212;-65
2023/04/01 00:56:22;;;;;;;;;20.75;18.00;22.70;42.50;;;;;;111286;1243;56085;-65
2023/04/01 00:58:52;;;;;;;;;16.00;14.75;22.70;42.30;;;;;;111394;1238;53381;-64
2023/04/01 01:01:21;;;;;;;;;19.75;17.00;22.70;42.50;;;;;;111423;1243;48858;-65
2023/04/01 01:03:48;;;;;;;;;17.75;16.50;22.60;42.20;;;;;;111429;1244;49378;-65
2023/04/01 01:06:40;;;;;;;;;19.75;18.00;22.60;42.20;;;;;;111491;1239;46846;-65
2023/04/01 01:09:28;;;;;;;;;21.75;20.75;22.60;42.30;;;;;;111516;1238;55813;-65
2023/04/01 01:12:01;;;;;;;;;19.00;17.25;22.60;42.30;;;;;;111427;1241;54087;-63
2023/04/01 01:14:59;;;;;;;;;22.75;18.50;22.50;42.20;;;;;;111370;1239;48977;-63
2023/04/01 01:18:01;;;;;;;;;20.75;19.25;22.50;42.30;;;;;;111329;1238;49393;-63
2023/04/01 01:20:47;;;;;;;;;20.00;17.00;22.50;42.10;;;;;;110985;1243;45801;-64
2023/04/01 01:23:28;;;;;;;;;20.25;17.25;22.50;42.10;;;;;;111304;1237;55502;-63
2023/04/01 01:26:04;;;;;;;;;16.50;15.00;22.50;42.10;;;;;;111491;1237;54296;-64
2023/04/01 01:29:01;;;;;;;;;20.00;17.50;22.50;42.00;;;;;;111437;1238;49683;-63
2023/04/01 01:31:57;;;;;;;;;19.75;18.00;22.50;41.90;;;;;;111353;1238;49411;-63
2023/04/01 01:34:52;;;;;;;;;21.25;17.75;22.50;41.90;;;;;;111371;1240;45414;-63
2023/04/01 01:37:22;;;;;;;;;21.50;20.50;22.50;42.10;;;;;;111297;1243;55608;-64
2023/04/01 01:39:54;;;;;;;;;21.00;19.00;22.50;41.90;;;;;;111474;1242;53326;-64
2023/04/01 01:42:24;;;;;;;;;19.00;16.00;22.50;41.40;;;;;;111370;1237;49061;-65
2023/04/01 01:44:52;;;;;;;;;21.25;20.25;22.50;42.50;;;;;;111380;1243;49081;-64
2023/04/01 01:47:20;;;;;;;;;19.25;18.00;22.60;42.00;;;;;;111312;1243;46074;-66
2023/04/01 01:49:48;;;;;;;;;20.75;17.75;22.60;42.00;;;;;;111470;1244;56484;-65
2023/04/01 01:52:17;;;;;;;;;17.25;16.00;22.60;42.10;;;;;;111282;1240;53772;-66
2023/04/01 01:54:52;;;;;;;;;18.00;17.00;22.60;42.10;;;;;;111479;1237;49488;-65
2023/04/01 01:57:25;;;;;;;;;20.50;18.00;22.70;42.20;;;;;;111222;1243;48985;-65
2023/04/01 01:59:56;;;;;;;;;19.00;17.00;22.70;42.20;;;;;;111313;1243;45564;-64
2023/04/01 02:02:24;;;;;;;;;16.67;15.33;22.70;42.20;;;;;;111424;1237;55442;-64
2023/04/01 02:04:51;;;;;;;;;16.75;15.75;22.70;42.40;;;;;;111412;1238;53885;-65
2023/04/01 02:07:22;;;;;;;;;17.00;16.00;22.70;42.40;;;;;;111229;1238;50384;-66
2023/04/01 02:09:50;;;;;;;;;15.33;14.33;22.70;42.20;;;;;;111424;1242;49316;-65
2023/04/01 02:12:19;;;;;;;;;19.25;17.00;22.70;42.20;;;;;;111417;1242;45814;-67
2023/04/01 02:15:05;;;;;;;;;21.50;17.00;22.70;42.20;;;;;;111418;1242;56657;-66
2023/04/01 02:17:33;;;;;;;;;19.33;17.00;22.80;42.30;;;;;;111464;1237;54160;-63
2023/04/01 02:20:22;;;;;;;;;21.00;16.50;22.80;42.30;;;;;;111183;1241;49249;-66
2023/04/01 02:22:58;;;;;;;;;19.00;17.67;22.80;42.30;;;;;;111398;1243;49705;-64
2023/04/01 02:25:30;;;;;;;;;19.00;17.67;22.80;42.50;;;;;;111465;1237;45637;-63
2023/04/01 02:27:59;;;;;;;;;18.25;16.00;22.80;42.50;;;;;;111442;1238;55420;-64
2023/04/01 02:30:32;;;;;;;;;18.75;16.25;22.80;42.50;;;;;;111230;1243;54292;-63
2023/04/01 02:32:59;;;;;;;;;17.00;16.00;22.80;42.30;;;;;;111446;1239;50156;-65
2023/04/01 02:35:27;;;;;;;;;20.67;18.33;22.80;42.40;;;;;;111209;1243;49767;-65
2023/04/01 02:37:54;;;;;;;;;19.00;16.75;22.80;42.30;;;;;;111288;1241;45504;-65
2023/04/01 02:40:22;;;;;;;;;18.50;17.50;22.80;42.30;;;;;;111429;1237;56068;-65
2023/04/01 02:42:49;;;;;;;;;18.75;17.00;22.70;42.30;;;;;;111407;1238;54273;-64
2023/04/01 02:45:16;;;;;;;;;19.50;15.50;22.70;42.30;;;;;;111287;1240;50232;-63
2023/04/01 02:47:43;;;;;;;;;19.75;16.00;22.70;42.30;;;;;;111392;1243;51498;-64
2023/04/01 02:50:10;;;;;;;;;21.00;18.00;22.70;42.30;;;;;;111440;1238;45356;-64
2023/04/01 02:52:37;;;;;;;;;18.25;16.75;22.70;42.30;;;;;;111471;1238;54955;-65
2023/04/01 02:55:06;;;;;;;;;21.33;19.00;22.70;42.30;;;;;;111512;1237;53502;-64
2023/04/01 02:57:33;;;;;;;;;18.50;16.00;22.70;42.30;;;;;;111457;1237;49480;-64
2023/04/01 03:00:00;;;;;;;;;18.00;17.00;22.70;42.20;;;;;;111454;1238;50956;-64
2023/04/01 03:02:27;;;;;;;;;21.75;18.50;22.70;42.20;;;;;;111320;1243;45222;-64
2023/04/01 03:04:54;;;;;;;;;19.25;18.25;22.70;42.20;;;;;;111442;1237;55913;-65
2023/04/01 03:07:21;;;;;;;;;19.75;17.00;22.70;42.30;;;;;;111472;1238;55097;-64
2023/04/01 03:09:48;;;;;;;;;20.75;17.75;22.70;42.60;;;;;;111391;1243;49747;-65
2023/04/01 03:12:15;;;;;;;;;20.25;18.50;22.70;42.20;;;;;;111480;1237;50215;-64
2023/04/01 03:14:42;;;;;;;;;16.00;15.00;22.70;42.10;;;;;;111298;1240;45364;-64
2023/04/01 03:17:09;;;;;;;;;19.75;17.50;22.60;42.00;;;;;;111338;1241;55357;-64
2023/04/01 03:19:36;;;;;;;;;17.25;15.50;22.60;41.50;;;;;;111358;1243;54028;-64
2023/04/01 03:22:03;;;;;;;;;19.50;18.00;22.60;42.00;;;;;;111400;1237;49487;-64
2023/04/01 03:24:30;;;;;;;;;18.00;17.00;22.60;42.00;;;;;;111390;1238;48802;-63
2023/04/01 03:26:57;;;;;;;;;19.00;17.00;22.60;41.90;;;;;;111416;1244;46847;-63
2023/04/01 03:29:24;;;;;;;;;19.25;17.50;22.60;41.90;;;;;;111409;1237;55331;-65
2023/04/01 03:31:51;;;;;;;;;18.00;15.75;22.50;42.10;;;;;;111376;1237;54282;-65
2023/04/01 03:34:18;;;;;;;;;18.00;17.00;22.50;41.90;;;;;;111338;1237;50226;-65
2023/04/01 03:36:45;;;;;;;;;20.33;19.33;22.50;41.90;;;;;;111396;1238;49571;-63
2023/04/01 03:39:12;;;;;;;;;21.00;18.75;22.50;41.80;;;;;;111482;1238;45800;-65
2023/04/01 03:41:39;;;;;;;;;19.75;16.75;22.50;42.00;;;;;;111297;1238;56085;-65
2023/04/01 03:44:06;;;;;;;;;19.75;18.75;22.50;42.00;;;;;;111432;1238;53686;-63
2023/04/01 03:46:33;;;;;;;;;16.67;15.67;22.50;41.90;;;;;;111525;1243;49860;-62
2023/04/01 03:49:00;;;;;;;;;23.00;15.75;22.50;41.90;;;;;;111479;1237;49414;-62
2023/04/01 03:51:27;;;;;;;;;18.00;17.00;22.50;41.90;;;;;;111422;1243;45562;-64
2023/04/01 03:53:54;;;;;;;;;18.25;17.25;22.40;41.80;;;;;;111479;1242;55462;-61
2023/04/01 03:56:21;;;;;;;;;17.50;16.25;22.50;42.00;;;;;;111409;1242;54244;-62
2023/04/01 03:58:48;;;;;;;;;16.00;15.00;22.50;42.10;;;;;;111348;1237;49020;-64
2023/04/01 04:01:20;;;;;;;;;18.00;16.67;22.40;42.60;;;;;;111197;1243;49646;-64
2023/04/01 04:03:49;;;;;;;;;23.00;18.33;22.50;42.20;;;;;;111357;1238;45620;-64
2023/04/01 04:06:18;;;;;;;;;20.00;17.00;22.50;42.30;;;;;;111292;1238;55887;-63
2023/04/01 04:08:45;;;;;;;;;16.67;15.33;22.50;42.30;;;;;;111354;1238;53694;-62
2023/04/01 04:11:12;;;;;;;;;17.25;16.25;22.50;42.20;;;;;;111536;1243;50230;-63
2023/04/01 04:13:39;;;;;;;;;15.67;14.67;22.50;42.10;;;;;;111375;1243;49467;-63
2023/04/01 04:16:07;;;;;;;;;20.50;19.00;22.50;42.10;;;;;;111364;1238;46464;-62
2023/04/01 04:18:34;;;;;;;;;19.75;16.50;22.50;43.10;;;;;;111296;1242;55072;-64
2023/04/01 04:21:01;;;;;;;;;17.50;16.25;22.50;42.90;;;;;;111479;1238;54248;-62
2023/04/01 04:23:29;;;;;;;;;20.00;15.33;22.50;42.40;;;;;;111450;1238;50299;-63
2023/04/01 04:25:58;;;;;;;;;17.50;15.50;22.50;42.20;;;;;;111328;1241;48906;-63
2023/04/01 04:28:27;;;;;;;;;19.00;17.00;22.50;42.10;;;;;;111224;1243;45337;-65
2023/04/01 04:30:54;;;;;;;;;19.00;16.50;22.50;41.80;;;;;;111538;1239;55517;-64
2023/04/01 04:33:22;;;;;;;;;16.00;15.00;22.50;41.70;;;;;;111375;1239;53550;-65
2023/04/01 04:35:50;;;;;;;;;19.00;16.67;22.40;41.70;;;;;;111327;1243;49867;-65
2023/04/01 04:38:17;;;;;;;;;18.25;17.25;22.40;41.50;;;;;;111413;1239;48985;-66
2023/04/01 04:40:44;;;;;;;;;18.75;17.25;22.40;41.60;;;;;;111537;1237;45738;-65
2023/04/01 04:43:13;;;;;;;;;17.75;16.50;22.30;40.80;;;;;;111525;1242;55429;-63
2023/04/01 04:45:40;;;;;;;;;28.50;24.00;22.30;41.20;;;;;;111444;1238;54313;-64
2023/04/01 04:48:09;;;;;;;;;26.33;24.67;22.30;44.40;;;;;;111479;1238;48931;-62
2023/04/01 04:50:36;;;;;;;;;25.00;22.67;22.20;45.50;;;;;;111459;1238;49251;-69
2023/04/01 04:53:03;;;;;;;;;22.25;18.25;22.30;45.40;;;;;;111465;1239;45770;-65
2023/04/01 04:55:30;;;;;;;;;23.50;19.50;22.30;45.70;;;;;;111387;1238;56752;-66
2023/04/01 04:57:57;;;;;;;;;21.67;19.67;22.40;45.10;;;;;;111491;1237;53346;-66
2023/04/01 05:00:24;;;;;;;;;48.33;34.00;22.40;45.70;;;;;;111430;1237;49153;-63
2023/04/01 05:02:51;;;;;;;;;40.67;29.67;22.40;45.40;;;;;;111298;1243;49436;-74
2023/04/01 05:05:18;;;;;;;;;47.75;33.25;22.50;45.00;;;;;;111333;1242;45657;-62
2023/04/01 05:07:45;;;;;;;;;33.00;29.33;22.50;44.60;;;;;;111412;1237;55684;-64
2023/04/01 05:10:12;;;;;;;;;33.50;29.75;22.50;43.60;;;;;;111392;1237;53362;-64
2023/04/01 05:12:39;;;;;;;;;43.33;29.33;22.50;44.20;;;;;;111371;1238;50864;-64
2023/04/01 05:15:07;;;;;;;;;46.50;33.50;22.50;43.90;;;;;;111357;1245;48974;-65
2023/04/01 05:17:34;;;;;;;;;35.00;29.25;22.40;43.60;;;;;;111426;1241;45646;-64
2023/04/01 05:20:02;;;;;;;;;39.75;32.00;22.40;43.40;;;;;;111521;1242;55637;-65
2023/04/01 05:22:29;;;;;;;;;44.75;33.25;22.40;43.20;;;;;;111410;1243;53533;-65
2023/04/01 05:24:56;;;;;;;;;34.33;28.67;22.30;43.20;;;;;;111346;1237;50139;-65
2023/04/01 05:27:23;;;;;;;;;42.67;31.67;22.30;42.90;;;;;;111261;1239;48941;-65
2023/04/01 05:29:50;;;;;;;;;35.00;30.00;22.30;42.70;;;;;;111286;1239;45823;-65
2023/04/01 05:32:17;;;;;;;;;32.33;29.33;22.20;42.60;;;;;;111262;1237;55422;-65
2023/04/01 05:34:44;;;;;;;;;40.67;29.00;22.20;42.50;;;;;;111435;1237;53748;-65
2023/04/01 05:37:11;;;;;;;;;39.33;28.33;22.20;42.50;;;;;;111379;1244;49890;-65
2023/04/01 05:39:39;;;;;;;;;33.75;24.00;22.20;42.20;;;;;;111444;1244;49669;-65
2023/04/01 05:42:07;;;;;;;;;36.33;30.00;22.10;42.10;;;;;;111439;1242;46167;-65
2023/04/01 05:44:35;;;;;;;;;37.25;28.50;22.10;42.00;;;;;;111334;1243;55998;-63
2023/04/01 05:47:03;;;;;;;;;35.67;30.33;22.10;42.60;;;;;;111594;1238;53960;-64
2023/04/01 05:49:30;;;;;;;;;32.75;26.50;22.00;43.50;;;;;;111404;1243;49841;-64
2023/04/01 05:51:57;;;;;;;;;30.67;27.00;22.10;43.90;;;;;;111145;1239;49443;-64
2023/04/01 05:54:24;;;;;;;;;29.00;24.25;22.10;44.50;;;;;;111371;1243;45793;-64
2023/04/01 05:56:51;;;;;;;;;40.25;30.25;22.10;45.00;;;;;;111276;1239;55108;-72
2023/04/01 05:59:18;;;;;;;;;31.25;26.75;22.20;44.80;;;;;;111547;1242;54535;-69
2023/04/01 06:01:45;;;;;;;;;30.50;23.75;22.20;44.40;;;;;;111297;1239;50417;-64
2023/04/01 06:04:17;;;;;;;;;30.25;24.00;22.30;44.30;;;;;;111407;1243;50217;-68
2023/04/01 06:06:44;;;;;;;;;27.00;24.00;22.30;44.00;;;;;;111482;1239;45880;-64
2023/04/01 06:09:32;;;;;;;;;29.75;24.50;22.30;44.20;;;;;;111446;1237;55529;-64
2023/04/01 06:12:37;;;;;;;;;31.67;29.33;22.30;44.10;;;;;;111241;1240;54657;-65
2023/04/01 06:15:22;;;;;;;;;27.25;24.75;22.40;44.30;;;;;;111473;1243;50105;-65
2023/04/01 06:18:18;;;;;;;;;27.67;22.00;22.40;44.10;;;;;;111358;1240;49447;-65
2023/04/01 06:21:26;;;;;;;;;21.33;20.00;22.50;43.90;;;;;;111327;1243;45357;-65
2023/04/01 06:24:13;;;;;;;;;33.00;25.75;22.40;43.60;;;;;;111262;1237;55242;-65
2023/04/01 06:26:57;;;;;;;;;24.00;22.00;22.50;43.60;;;;;;111367;1237;54398;-65
2023/04/01 06:29:43;;;;;;;;;28.50;23.50;22.50;43.40;;;;;;111373;1237;49115;-66
2023/04/01 06:32:36;;;;;;;;;37.50;32.75;22.50;43.00;;;;;;111194;1237;49374;-65
2023/04/01 06:35:32;;;;;;;;;35.00;32.33;22.40;42.20;;;;;;111443;1237;46628;-63
2023/04/01 06:38:14;;;;;;;;;39.67;32.33;22.40;42.10;;;;;;111120;1238;56889;-64
2023/04/01 06:40:41;;;;;;;;;39.00;33.00;22.40;42.00;;;;;;111631;1242;54127;-67
2023/04/01 06:43:27;;;;;;;;;32.00;29.50;22.40;41.80;;;;;;111295;1239;50148;-66
2023/04/01 06:45:59;;;;;;;;;30.00;28.75;22.40;41.70;;;;;;111415;1243;49266;-65
2023/04/01 06:49:17;;;;;;;;;35.67;31.67;22.30;41.80;;;;;;111429;1242;45954;-66
2023/04/01 06:52:02;;;;;;;;;35.75;30.00;22.30;41.70;;;;;;110916;1243;55248;-66
2023/04/01 06:54:38;;;;;;;;;29.50;28.50;22.30;41.80;;;;;;111286;1240;53234;-65
2023/04/01 06:57:19;;;;;;;;;34.00;29.75;22.30;41.90;;;;;;111122;1244;50436;-67
2023/04/01 06:59:47;;;;;;;;;33.50;29.75;22.20;41.60;;;;;;111297;1243;49973;-67
2023/04/01 07:02:23;;;;;;;;;32.50;28.25;22.20;41.60;;;;;;111038;1238;45479;-67
2023/04/01 07:04:53;;;;;;;;;31.33;28.67;22.20;41.60;;;;;;111341;1237;55790;-66
2023/04/01 07:07:41;;;;;;;;;29.67;26.67;22.10;41.50;;;;;;111340;1246;53510;-66
2023/04/01 07:10:31;;;;;;;;;33.50;28.75;22.10;41.50;;;;;;111409;1238;50426;-67
2023/04/01 07:13:00;;;;;;;;;29.75;27.50;22.00;41.40;;;;;;111122;1243;49690;-65
2023/04/01 07:15:37;;;;;;;;;30.25;29.00;22.00;41.40;;;;;;111497;1243;45204;-66
2023/04/01 07:18:18;;;;;;;;;30.25;27.50;22.00;41.50;;;;;;111548;1242;56152;-66
2023/04/01 07:20:46;;;;;;;;;31.00;29.75;22.00;41.50;;;;;;110821;1239;732465;-66
2023/04/01 07:23:24;;;;;;;;;33.50;28.75;21.90;41.20;;;;;;111245;1243;50348;-66
2023/04/01 07:25:55;;;;;;;;;26.67;25.00;21.90;41.20;;;;;;111290;1243;48785;-66
2023/04/01 07:28:22;;;;;;;;;29.75;26.50;21.90;41.40;;;;;;111483;1238;45607;-66
2023/04/01 07:30:56;;;;;;;;;30.00;27.00;21.80;41.10;;;;;;111387;1242;56388;-65
2023/04/01 07:33:34;;;;;;;;;29.75;26.00;21.80;41.10;;;;;;111406;1237;54132;-66
2023/04/01 07:36:08;;;;;;;;;24.67;23.00;21.80;41.40;;;;;;111431;1237;50237;-66
2023/04/01 07:38:59;;;;;;;;;28.50;26.25;21.80;41.10;;;;;;111484;1237;49587;-66
2023/04/01 07:41:48;;;;;;;;;27.00;24.50;21.70;41.30;;;;;;111242;1239;45336;-67
2023/04/01 07:44:27;;;;;;;;;32.00;28.00;21.70;41.10;;;;;;111415;1240;55915;-68
2023/04/01 07:47:16;;;;;;;;;24.50;23.25;21.70;41.00;;;;;;111484;1238;54658;-64
2023/04/01 07:50:36;;;;;;;;;31.25;28.75;21.70;41.00;;;;;;111285;1240;49763;-61
2023/04/01 07:53:44;;;;;;;;;31.75;30.50;21.60;42.20;;;;;;110560;1249;50145;-65
2023/04/01 07:56:26;;;;;;;;;38.00;33.00;21.60;42.20;;;;;;110583;1249;46848;-65
2023/04/01 07:58:56;;;;;;;;;35.00;31.33;21.70;42.50;;;;;;111283;1238;56269;-66
2023/04/01 08:01:52;;;;;;;;;40.67;34.67;21.70;42.70;;;;;;111365;1247;54637;-66
2023/04/01 08:04:57;;;;;;;;;44.75;37.75;21.70;42.80;;;;;;111341;1237;49428;-67
2023/04/01 08:07:40;;;;;;;;;45.50;36.50;21.70;42.60;;;;;;111330;1240;49393;-67
2023/04/01 08:10:28;;;;;;;;;45.50;37.50;21.80;42.70;;;;;;111408;1242;45764;-70
2023/04/01 08:13:08;;;;;;;;;41.25;33.00;21.70;43.90;;;;;;111386;1237;55811;-64
2023/04/01 08:15:41;;;;;;;;;40.75;32.75;21.70;43.90;;;;;;111386;1237;54010;-61
2023/04/01 08:18:34;;;;;;;;;38.00;33.00;21.70;43.40;;;;;;111448;1242;49906;-57
2023/04/01 08:21:05;;;;;;;;;38.25;33.25;21.60;43.30;;;;;;111563;1239;50299;-59
2023/04/01 08:23:47;;;;;;;;;39.33;34.67;21.60;43.40;;;;;;111380;1242;45164;-59
2023/04/01 08:26:41;;;;;;;;;40.00;35.00;21.50;43.40;;;;;;111360;1238;55818;-59
2023/04/01 08:29:21;;;;;;;;;35.33;31.00;21.50;43.50;;;;;;111419;1239;53146;-60
2023/04/01 08:31:57;;;;;;;;;35.25;31.75;21.50;43.30;;;;;;111394;1243;48997;-59
2023/04/01 08:34:45;;;;;;;;;35.00;32.00;21.40;43.40;;;;;;111533;1237;49671;-59
2023/04/01 08:37:17;;;;;;;;;32.50;29.50;21.40;43.20;;;;;;111508;1242;45710;-59
2023/04/01 08:39:52;;;;;;;;;39.67;31.67;21.40;43.30;;;;;;111366;1242;57094;-58
2023/04/01 08:42:36;;;;;;;;;33.75;31.00;21.40;43.00;;;;;;111219;1244;55082;-58
2023/04/01 08:45:31;;;;;;;;;35.75;32.00;21.40;43.00;;;;;;111373;1238;50616;-58
2023/04/01 08:48:40;;;;;;;;;37.50;32.00;21.30;42.80;;;;;;111506;1237;50123;-59
2023/04/01 08:51:25;;;;;;;;;35.25;32.75;21.30;42.80;;;;;;111243;1237;45237;-59
2023/04/01 08:54:01;;;;;;;;;35.33;31.67;21.40;42.90;;;;;;111388;1237;54977;-60
2023/04/01 08:57:00;;;;;;;;;34.33;31.00;21.40;43.30;;;;;;111317;1243;53881;-60
2023/04/01 09:00:00;;;;;;;;;32.25;30.25;21.30;44.20;;;;;;111117;1239;49332;-60
2023/04/01 09:03:00;;;;;;;;;33.00;31.00;21.40;44.10;;;;;;111121;1237;51871;-60
2023/04/01 09:05:57;;;;;;;;;31.25;29.50;21.40;43.80;;;;;;111109;1242;46112;-60
2023/04/01 09:08:49;;;;;;;;;30.00;28.00;21.50;43.80;;;;;;111439;1243;56576;-59
2023/04/01 09:11:35;;;;;;;;;34.50;30.75;21.50;43.60;;;;;;111554;1242;53982;-59
2023/04/01 09:14:26;;;;;;;;;31.50;29.50;21.50;43.40;;;;;;111479;1242;50014;-59
2023/04/01 09:17:12;;;;;;;;;32.33;29.00;21.50;43.30;;;;;;111297;1243;50590;-60
2023/04/01 09:19:56;;;;;;;;;33.75;28.75;21.40;43.20;;;;;;111474;1238;45487;-59
2023/04/01 09:22:42;;;;;;;;;31.75;28.50;21.50;43.10;;;;;;111556;1243;55914;-59
2023/04/01 09:25:12;;;;;;;;;32.75;29.50;21.40;42.90;;;;;;111512;1237;54216;-59
2023/04/01 09:27:57;;;;;;;;;30.00;28.33;21.40;42.80;;;;;;111470;1243;48958;-59
2023/04/01 09:30:33;;;;;;;;;30.67;27.33;21.40;42.80;;;;;;111528;1243;50247;-58
2023/04/01 09:33:08;;;;;;;;;33.33;28.67;21.50;42.70;;;;;;111479;1239;45883;-58
2023/04/01 09:35:49;;;;;;;;;30.00;26.00;21.50;42.50;;;;;;111328;1243;55830;-59
2023/04/01 09:38:22;;;;;;;;;29.25;27.50;21.50;42.40;;;;;;111453;1242;53498;-59
2023/04/01 09:40:51;;;;;;;;;27.25;25.50;21.50;42.60;;;;;;111508;1243;49548;-58
2023/04/01 09:43:26;;;;;;;;;31.50;26.75;21.50;42.60;;;;;;111527;1237;49186;-57
2023/04/01 09:45:58;;;;;;;;;31.25;25.25;21.50;42.40;;;;;;111386;1237;46254;-58
2023/04/01 09:49:16;;;;;;;;;25.00;22.75;21.40;42.30;;;;;;111486;1244;55909;-58
2023/04/01 09:52:02;;;;;;;;;25.00;23.50;21.40;42.10;;;;;;111270;1238;54526;-58
2023/04/01 09:54:31;;;;;;;;;27.00;24.00;21.50;42.50;;;;;;111350;1243;49460;-58
2023/04/01 09:57:35;;;;;;;;;28.33;25.67;21.50;41.90;;;;;;111376;1242;49439;-57
2023/04/01 10:00:21;;;;;;;;;28.50;25.25;21.50;42.00;;;;;;111362;1241;46991;-59
2023/04/01 10:03:07;;;;;;;;;27.50;22.50;21.50;41.90;;;;;;111375;1242;56102;-59
2023/04/01 10:05:37;;;;;;;;;27.00;24.00;21.50;41.90;;;;;;111387;1237;53679;-58
2023/04/01 10:08:23;;;;;;;;;27.00;24.25;21.40;41.80;;;;;;111545;1243;49975;-57
2023/04/01 10:11:15;;;;;;;;;28.00;26.00;21.40;41.80;;;;;;111202;1239;48934;-58
2023/04/01 10:14:27;;;;;;;;;31.25;28.75;21.40;41.90;;;;;;111320;1246;45776;-57
2023/04/01 10:17:00;;;;;;;;;30.50;26.75;21.40;42.00;;;;;;111223;1240;55695;-58
2023/04/01 10:20:05;;;;;;;;;30.75;25.25;21.40;41.80;;;;;;111465;1243;54111;-57
2023/04/01 10:22:56;;;;;;;;;23.50;22.25;21.40;41.90;;;;;;111367;1243;50340;-57
2023/04/01 10:25:29;;;;;;;;;31.67;28.00;21.40;41.70;;;;;;111426;1243;50255;-57
2023/04/01 10:28:12;;;;;;;;;26.00;23.00;21.40;41.70;;;;;;111517;1238;45947;-57
2023/04/01 10:31:07;;;;;;;;;29.25;27.00;21.40;41.70;;;;;;111351;1238;56367;-57
2023/04/01 10:33:36;;;;;;;;;29.50;26.75;21.40;41.60;;;;;;111310;1238;54280;-58
2023/04/01 10:36:29;;;;;;;;;28.25;25.50;21.40;41.50;;;;;;111470;1242;49140;-57
2023/04/01 10:39:11;;;;;;;;;25.75;24.00;21.40;41.50;;;;;;111480;1247;49544;-59
2023/04/01 10:42:11;;;;;;;;;27.00;24.00;21.40;41.70;;;;;;111417;1240;45338;-58
2023/04/01 10:44:56;;;;;;;;;26.25;24.50;21.40;41.90;;;;;;111427;1242;56777;-58
2023/04/01 10:47:39;;;;;;;;;24.50;22.00;21.40;41.40;;;;;;111213;1240;54227;-58
2023/04/01 10:50:31;;;;;;;;;28.25;25.50;21.40;41.30;;;;;;111418;1243;50041;-60
2023/04/01 10:53:40;;;;;;;;;21.75;20.25;21.40;41.20;;;;;;111399;1242;50645;-58
2023/04/01 10:56:25;;;;;;;;;27.00;24.00;21.40;41.20;;;;;;110784;1249;46083;-58
2023/04/01 10:59:30;;;;;;;;;25.75;24.00;21.40;41.20;;;;;;110719;1245;55708;-59
2023/04/01 11:02:07;;;;;;;;;24.00;23.00;21.40;41.30;;;;;;111295;1243;54271;-59
2023/04/01 11:05:06;;;;;;;;;26.33;25.00;21.40;41.10;;;;;;111377;1238;50030;-59
2023/04/01 11:07:39;;;;;;;;;25.00;21.67;21.40;41.10;;;;;;111361;1241;49805;-59
2023/04/01 11:10:44;;;;;;;;;32.00;23.75;21.30;41.00;;;;;;111460;1238;45850;-59
2023/04/01 11:13:27;;;;;;;;;25.75;22.50;21.30;41.80;;;;;;111446;1237;56012;-59
2023/04/01 11:16:00;;;;;;;;;28.75;25.00;21.30;41.40;;;;;;111510;1242;54164;-58
2023/04/01 11:18:48;;;;;;;;;24.75;22.00;21.30;41.40;;;;;;111438;1243;49574;-59
2023/04/01 11:21:37;;;;;;;;;26.00;23.00;21.30;41.40;;;;;;111387;1237;49978;-58
2023/04/01 11:24:06;;;;;;;;;27.00;22.50;21.30;41.30;;;;;;111344;1237;45810;-58
2023/04/01 11:26:52;;;;;;;;;28.25;23.50;21.30;41.50;;;;;;111398;1241;55716;-58
2023/04/01 11:29:22;;;;;;;;;23.75;22.25;21.20;41.20;;;;;;111173;1243;54161;-58
2023/04/01 11:32:26;;;;;;;;;28.75;23.75;21.20;41.20;;;;;;111304;1245;49404;-59
2023/04/01 11:34:56;;;;;;;;;23.00;21.00;21.30;41.40;;;;;;111376;1237;49830;-58
2023/04/01 11:37:36;;;;;;;;;26.50;25.25;21.20;41.10;;;;;;111397;1237;46501;-59
2023/04/01 11:40:24;;;;;;;;;25.33;22.00;21.20;41.20;;;;;;111444;1242;55093;-58
2023/04/01 11:43:14;;;;;;;;;28.00;22.00;21.20;41.10;;;;;;111387;1242;53466;-58
2023/04/01 11:45:50;;;;;;;;;24.00;23.00;21.20;41.10;;;;;;111300;1244;49061;-58
2023/04/01 11:48:26;;;;;;;;;21.50;20.00;21.30;41.30;;;;;;111477;1242;50147;-59
2023/04/01 11:51:14;;;;;;;;;22.67;21.00;21.30;41.20;;;;;;111477;1238;45707;-58
2023/04/01 11:53:47;;;;;;;;;22.25;20.75;21.30;41.00;;;;;;111385;1237;55231;-58
2023/04/01 11:56:41;;;;;;;;;33.25;26.25;21.30;41.00;;;;;;111414;1238;54633;-59
2023/04/01 11:59:48;;;;;;;;;25.33;22.00;21.20;40.90;;;;;;111355;1243;49586;-58
2023/04/01 12:02:17;;;;;;;;;27.00;22.00;21.20;40.90;;;;;;111110;1246;49039;-57
2023/04/01 12:05:22;;;;;;;;;23.00;20.67;21.20;41.30;;;;;;111389;1240;45183;-58
2023/04/01 12:08:21;;;;;;;;;26.67;24.00;21.20;41.20;;;;;;111252;1238;55917;-59
2023/04/01 12:11:15;;;;;;;;;29.50;27.00;21.20;42.70;;;;;;111468;1237;53909;-59
2023/04/01 12:14:19;;;;;;;;;27.00;24.75;21.20;43.50;;;;;;111225;1243;50068;-59
2023/04/01 12:16:59;;;;;;;;;29.50;27.25;21.20;43.20;;;;;;111486;1237;49788;-59
2023/04/01 12:19:26;;;;;;;;;29.75;28.50;21.20;42.60;;;;;;111231;1239;45984;-58
2023/04/01 12:22:35;;;;;;;;;27.00;25.75;21.20;42.60;;;;;;111385;1240;56006;-60
2023/04/01 12:25:20;;;;;;;;;25.75;24.75;21.20;42.50;;;;;;111475;1238;54425;-59
2023/04/01 12:27:58;;;;;;;;;28.00;23.50;21.20;42.20;;;;;;111471;1246;49545;-59
2023/04/01 12:30:40;;;;;;;;;33.00;26.50;21.20;42.10;;;;;;111445;1238;49063;-59
2023/04/01 12:33:24;;;;;;;;;24.25;22.75;21.20;42.00;;;;;;111410;1242;46002;-60
2023/04/01 12:36:22;;;;;;;;;26.00;24.75;21.20;42.00;;;;;;111469;1237;55768;-59
2023/04/01 12:39:20;;;;;;;;;26.33;23.33;21.20;42.00;;;;;;111361;1241;55083;-59
2023/04/01 12:42:05;;;;;;;;;32.75;28.00;21.20;42.00;;;;;;111458;1243;50501;-59
2023/04/01 12:44:41;;;;;;;;;27.50;24.50;21.10;41.80;;;;;;111353;1238;49936;-57
2023/04/01 12:47:42;;;;;;;;;27.75;24.00;21.10;41.70;;;;;;111426;1242;45475;-58
2023/04/01 12:50:17;;;;;;;;;31.00;24.75;21.10;41.80;;;;;;111476;1243;55835;-58
2023/04/01 12:53:16;;;;;;;;;26.00;24.00;21.10;41.80;;;;;;111465;1238;53848;-58
2023/04/01 12:55:44;;;;;;;;;27.50;23.75;21.10;41.70;;;;;;111386;1238;49407;-58
2023/04/01 12:58:23;;;;;;;;;26.75;22.50;21.10;41.90;;;;;;111415;1237;50189;-59
2023/04/01 13:01:03;;;;;;;;;26.25;24.00;21.10;41.70;;;;;;111383;1238;45545;-59
2023/04/01 13:04:01;;;;;;;;;24.75;21.75;21.10;41.70;;;;;;111342;1243;56006;-58
2023/04/01 13:06:33;;;;;;;;;28.50;23.25;21.10;41.70;;;;;;111309;1243;53622;-59
2023/04/01 13:09:18;;;;;;;;;26.50;24.00;21.10;41.80;;;;;;111186;1240;49547;-58
2023/04/01 13:12:14;;;;;;;;;23.50;21.75;21.10;41.60;;;;;;111112;1244;49926;-59